Terminal Aerodrome Forecast
Issued by NWS

Home | Current Version | Previous Version | Text Only | Print | Product List | Glossary On
Versions: 1 2 3 4 5 6 7 8 9 10 11 12 13 14 15 16
450
FTUS45 KVEF 280009 AAA
TAFHND
TAF AMD
KHND 280009Z 2800/2824 04010G20KT P6SM VCSH SCT060 BKN100
     FM280200 32020G30KT P6SM SCT100
     FM280800 35014G24KT P6SM FEW100=

USA.gov is the U.S. government's official web portal to all federal, state and local government web resources and services.